sensor_id;sensor_type;location;lat;lon;timestamp;temperature;humidity
36206;DHT22;22242;48.796;9.930;2024-03-02T00:01:31;6.10;99.90
36206;DHT22;22242;48.796;9.930;2024-03-02T00:03:58;6.10;99.90
36206;DHT22;22242;48.796;9.930;2024-03-02T00:06:25;6.20;99.90
36206;DHT22;22242;48.796;9.930;2024-03-02T00:08:56;6.20;99.90
36206;DHT22;22242;48.796;9.930;2024-03-02T00:11:24;6.20;99.90
36206;DHT22;22242;48.796;9.930;2024-03-02T00:13:53;6.20;99.90
36206;DHT22;22242;48.796;9.930;2024-03-02T00:16:20;6.20;99.90
36206;DHT22;22242;48.796;9.930;2024-03-02T00:18:47;6.20;99.90
36206;DHT22;22242;48.796;9.930;2024-03-02T00:21:14;6.20;99.90
36206;DHT22;22242;48.796;9.930;2024-03-02T00:23:44;6.20;99.90
36206;DHT22;22242;48.796;9.930;2024-03-02T00:26:11;6.20;99.90
36206;DHT22;22242;48.796;9.930;2024-03-02T00:28:39;6.20;99.90
36206;DHT22;22242;48.796;9.930;2024-03-02T00:31:09;6.30;99.90
36206;DHT22;22242;48.796;9.930;2024-03-02T00:33:39;6.20;99.90
36206;DHT22;22242;48.796;9.930;2024-03-02T00:36:08;6.30;99.90
36206;DHT22;22242;48.796;9.930;2024-03-02T00:38:44;6.20;99.90
36206;DHT22;22242;48.796;9.930;2024-03-02T00:41:19;6.30;99.90
36206;DHT22;22242;48.796;9.930;2024-03-02T00:43:53;6.30;99.90
36206;DHT22;22242;48.796;9.930;2024-03-02T00:46:25;6.30;99.90
36206;DHT22;22242;48.796;9.930;2024-03-02T00:48:54;6.20;99.90
36206;DHT22;22242;48.796;9.930;2024-03-02T00:51:21;6.30;99.90
36206;DHT22;22242;48.796;9.930;2024-03-02T00:53:48;6.30;99.90
36206;DHT22;22242;48.796;9.930;2024-03-02T00:56:16;6.30;99.90
36206;DHT22;22242;48.796;9.930;2024-03-02T00:58:43;6.20;99.90
36206;DHT22;22242;48.796;9.930;2024-03-02T01:01:10;6.20;99.90
36206;DHT22;22242;48.796;9.930;2024-03-02T01:03:38;6.20;99.90
36206;DHT22;22242;48.796;9.930;2024-03-02T01:06:05;6.20;99.90
36206;DHT22;22242;48.796;9.930;2024-03-02T01:08:33;6.20;99.90
36206;DHT22;22242;48.796;9.930;2024-03-02T01:11:00;6.10;99.90
36206;DHT22;22242;48.796;9.930;2024-03-02T01:13:27;6.10;99.90
36206;DHT22;22242;48.796;9.930;2024-03-02T01:15:54;6.10;99.90
36206;DHT22;22242;48.796;9.930;2024-03-02T01:18:21;6.20;99.90
36206;DHT22;22242;48.796;9.930;2024-03-02T01:20:50;6.10;99.90
36206;DHT22;22242;48.796;9.930;2024-03-02T01:23:18;6.10;99.90
36206;DHT22;22242;48.796;9.930;2024-03-02T01:25:46;6.10;99.90
36206;DHT22;22242;48.796;9.930;2024-03-02T01:28:13;6.10;99.90
36206;DHT22;22242;48.796;9.930;2024-03-02T01:30:39;6.10;99.90
36206;DHT22;22242;48.796;9.930;2024-03-02T01:33:06;6.20;99.90
36206;DHT22;22242;48.796;9.930;2024-03-02T01:35:33;6.20;99.90
36206;DHT22;22242;48.796;9.930;2024-03-02T01:38:03;6.20;99.90
36206;DHT22;22242;48.796;9.930;2024-03-02T01:40:32;6.30;99.90
36206;DHT22;22242;48.796;9.930;2024-03-02T01:42:58;6.20;99.90
36206;DHT22;22242;48.796;9.930;2024-03-02T01:45:25;6.30;99.90
36206;DHT22;22242;48.796;9.930;2024-03-02T01:47:52;6.30;99.90
36206;DHT22;22242;48.796;9.930;2024-03-02T01:50:25;6.30;99.90
36206;DHT22;22242;48.796;9.930;2024-03-02T01:52:52;6.20;99.90
36206;DHT22;22242;48.796;9.930;2024-03-02T01:55:21;6.30;99.90
36206;DHT22;22242;48.796;9.930;2024-03-02T01:57:48;6.30;99.90
36206;DHT22;22242;48.796;9.930;2024-03-02T02:00:16;6.30;99.90
36206;DHT22;22242;48.796;9.930;2024-03-02T02:02:44;6.40;99.90
36206;DHT22;22242;48.796;9.930;2024-03-02T02:05:11;6.50;99.90
36206;DHT22;22242;48.796;9.930;2024-03-02T02:07:38;6.60;99.90
36206;DHT22;22242;48.796;9.930;2024-03-02T02:10:05;6.60;99.90
36206;DHT22;22242;48.796;9.930;2024-03-02T02:12:34;6.60;99.90
36206;DHT22;22242;48.796;9.930;2024-03-02T02:15:01;6.50;99.90
36206;DHT22;22242;48.796;9.930;2024-03-02T02:17:28;6.40;99.90
36206;DHT22;22242;48.796;9.930;2024-03-02T02:19:55;6.40;99.90
36206;DHT22;22242;48.796;9.930;2024-03-02T02:22:23;6.40;99.90
36206;DHT22;22242;48.796;9.930;2024-03-02T02:24:50;6.40;99.90
36206;DHT22;22242;48.796;9.930;2024-03-02T02:27:16;6.50;99.90
36206;DHT22;22242;48.796;9.930;2024-03-02T02:29:43;6.40;99.90
36206;DHT22;22242;48.796;9.930;2024-03-02T02:32:10;6.40;99.90
36206;DHT22;22242;48.796;9.930;2024-03-02T02:34:37;6.40;99.90
36206;DHT22;22242;48.796;9.930;2024-03-02T02:37:04;6.50;99.90
36206;DHT22;22242;48.796;9.930;2024-03-02T02:39:32;6.40;99.90
36206;DHT22;22242;48.796;9.930;2024-03-02T02:41:59;6.40;99.90
36206;DHT22;22242;48.796;9.930;2024-03-02T02:44:26;6.30;99.90
36206;DHT22;22242;48.796;9.930;2024-03-02T02:46:53;6.40;99.90
36206;DHT22;22242;48.796;9.930;2024-03-02T02:49:20;6.40;99.90
36206;DHT22;22242;48.796;9.930;2024-03-02T02:51:47;6.40;99.90
36206;DHT22;22242;48.796;9.930;2024-03-02T02:54:13;6.30;99.90
36206;DHT22;22242;48.796;9.930;2024-03-02T02:56:41;6.40;99.90
36206;DHT22;22242;48.796;9.930;2024-03-02T02:59:08;6.50;99.90
36206;DHT22;22242;48.796;9.930;2024-03-02T03:01:35;6.50;99.90
36206;DHT22;22242;48.796;9.930;2024-03-02T03:04:02;6.50;99.90
36206;DHT22;22242;48.796;9.930;2024-03-02T03:06:29;6.50;99.90
36206;DHT22;22242;48.796;9.930;2024-03-02T03:08:55;6.50;99.90
36206;DHT22;22242;48.796;9.930;2024-03-02T03:11:23;6.50;99.90
36206;DHT22;22242;48.796;9.930;2024-03-02T03:13:53;6.50;99.90
36206;DHT22;22242;48.796;9.930;2024-03-02T03:16:20;6.50;99.90
36206;DHT22;22242;48.796;9.930;2024-03-02T03:18:47;6.30;99.90
36206;DHT22;22242;48.796;9.930;2024-03-02T03:21:17;6.20;99.90
36206;DHT22;22242;48.796;9.930;2024-03-02T03:23:43;6.10;99.90
36206;DHT22;22242;48.796;9.930;2024-03-02T03:26:10;6.00;99.90
36206;DHT22;22242;48.796;9.930;2024-03-02T03:28:37;6.00;99.90
36206;DHT22;22242;48.796;9.930;2024-03-02T03:31:05;6.10;99.90
36206;DHT22;22242;48.796;9.930;2024-03-02T03:33:32;6.10;99.90
36206;DHT22;22242;48.796;9.930;2024-03-02T03:36:00;6.10;99.90
36206;DHT22;22242;48.796;9.930;2024-03-02T03:38:28;6.20;99.90
36206;DHT22;22242;48.796;9.930;2024-03-02T03:40:55;6.30;99.90
36206;DHT22;22242;48.796;9.930;2024-03-02T03:43:22;6.40;99.90
36206;DHT22;22242;48.796;9.930;2024-03-02T03:45:49;6.40;99.90
36206;DHT22;22242;48.796;9.930;2024-03-02T03:48:16;6.40;99.90
36206;DHT22;22242;48.796;9.930;2024-03-02T03:50:44;6.40;99.90
36206;DHT22;22242;48.796;9.930;2024-03-02T03:53:11;6.30;99.90
36206;DHT22;22242;48.796;9.930;2024-03-02T03:55:38;6.30;99.90
36206;DHT22;22242;48.796;9.930;2024-03-02T03:58:05;6.20;99.90
36206;DHT22;22242;48.796;9.930;2024-03-02T04:00:32;6.20;99.90
36206;DHT22;22242;48.796;9.930;2024-03-02T04:02:58;6.20;99.90
36206;DHT22;22242;48.796;9.930;2024-03-02T04:05:26;6.10;99.90
36206;DHT22;22242;48.796;9.930;2024-03-02T04:07:53;6.20;99.90
36206;DHT22;22242;48.796;9.930;2024-03-02T04:10:20;6.10;99.90
36206;DHT22;22242;48.796;9.930;2024-03-02T04:12:47;6.20;99.90
36206;DHT22;22242;48.796;9.930;2024-03-02T04:15:16;6.10;99.90
36206;DHT22;22242;48.796;9.930;2024-03-02T04:17:44;6.10;99.90
36206;DHT22;22242;48.796;9.930;2024-03-02T04:20:11;6.10;99.90
36206;DHT22;22242;48.796;9.930;2024-03-02T04:22:39;6.20;99.90
36206;DHT22;22242;48.796;9.930;2024-03-02T04:25:07;6.20;99.90
36206;DHT22;22242;48.796;9.930;2024-03-02T04:27:32;6.20;99.90
36206;DHT22;22242;48.796;9.930;2024-03-02T04:29:59;6.20;99.90
36206;DHT22;22242;48.796;9.930;2024-03-02T04:32:26;6.20;99.90
36206;DHT22;22242;48.796;9.930;2024-03-02T04:34:53;6.10;99.90
36206;DHT22;22242;48.796;9.930;2024-03-02T04:37:20;6.10;99.90
36206;DHT22;22242;48.796;9.930;2024-03-02T04:39:48;6.10;99.90
36206;DHT22;22242;48.796;9.930;2024-03-02T04:42:15;6.00;99.90
36206;DHT22;22242;48.796;9.930;2024-03-02T04:44:42;6.00;99.90
36206;DHT22;22242;48.796;9.930;2024-03-02T04:47:09;5.90;99.90
36206;DHT22;22242;48.796;9.930;2024-03-02T04:49:36;6.00;99.90
36206;DHT22;22242;48.796;9.930;2024-03-02T04:52:03;6.10;99.90
36206;DHT22;22242;48.796;9.930;2024-03-02T04:54:30;6.10;99.90
36206;DHT22;22242;48.796;9.930;2024-03-02T04:56:58;6.20;99.90
36206;DHT22;22242;48.796;9.930;2024-03-02T04:59:24;6.20;99.90
36206;DHT22;22242;48.796;9.930;2024-03-02T05:01:51;6.20;99.90
36206;DHT22;22242;48.796;9.930;2024-03-02T05:04:17;6.20;99.90
36206;DHT22;22242;48.796;9.930;2024-03-02T05:06:44;6.10;99.90
36206;DHT22;22242;48.796;9.930;2024-03-02T05:09:17;6.20;99.90
36206;DHT22;22242;48.796;9.930;2024-03-02T05:11:44;6.10;99.90
36206;DHT22;22242;48.796;9.930;2024-03-02T05:14:38;6.10;99.90
36206;DHT22;22242;48.796;9.930;2024-03-02T05:17:05;6.10;99.90
36206;DHT22;22242;48.796;9.930;2024-03-02T05:19:32;6.20;99.90
36206;DHT22;22242;48.796;9.930;2024-03-02T05:21:58;6.20;99.90
36206;DHT22;22242;48.796;9.930;2024-03-02T05:24:25;6.20;99.90
36206;DHT22;22242;48.796;9.930;2024-03-02T05:26:53;6.20;99.90
36206;DHT22;22242;48.796;9.930;2024-03-02T05:29:21;6.20;99.90
36206;DHT22;22242;48.796;9.930;2024-03-02T05:31:49;6.20;99.90
36206;DHT22;22242;48.796;9.930;2024-03-02T05:34:16;6.10;99.90
36206;DHT22;22242;48.796;9.930;2024-03-02T05:36:44;6.10;99.90
36206;DHT22;22242;48.796;9.930;2024-03-02T05:39:10;6.10;99.90
36206;DHT22;22242;48.796;9.930;2024-03-02T05:41:37;6.00;99.90
36206;DHT22;22242;48.796;9.930;2024-03-02T05:44:04;6.10;99.90
36206;DHT22;22242;48.796;9.930;2024-03-02T05:46:31;6.20;99.90
36206;DHT22;22242;48.796;9.930;2024-03-02T05:48:59;6.20;99.90
36206;DHT22;22242;48.796;9.930;2024-03-02T05:51:26;6.20;99.90
36206;DHT22;22242;48.796;9.930;2024-03-02T05:53:53;6.20;99.90
36206;DHT22;22242;48.796;9.930;2024-03-02T05:56:20;6.20;99.90
36206;DHT22;22242;48.796;9.930;2024-03-02T05:58:47;6.10;99.90
36206;DHT22;22242;48.796;9.930;2024-03-02T06:01:26;6.20;99.90
36206;DHT22;22242;48.796;9.930;2024-03-02T06:03:55;6.20;99.90
36206;DHT22;22242;48.796;9.930;2024-03-02T06:06:23;6.20;99.90
36206;DHT22;22242;48.796;9.930;2024-03-02T06:08:50;6.20;99.90
36206;DHT22;22242;48.796;9.930;2024-03-02T06:11:18;6.20;99.90
36206;DHT22;22242;48.796;9.930;2024-03-02T06:13:45;6.10;99.90
36206;DHT22;22242;48.796;9.930;2024-03-02T06:16:12;6.10;99.90
36206;DHT22;22242;48.796;9.930;2024-03-02T06:18:39;6.20;99.90
36206;DHT22;22242;48.796;9.930;2024-03-02T06:21:06;6.20;99.90
36206;DHT22;22242;48.796;9.930;2024-03-02T06:23:35;6.20;99.90
36206;DHT22;22242;48.796;9.930;2024-03-02T06:26:02;6.20;99.90
36206;DHT22;22242;48.796;9.930;2024-03-02T06:28:28;6.20;99.90
36206;DHT22;22242;48.796;9.930;2024-03-02T06:30:55;6.30;99.90
36206;DHT22;22242;48.796;9.930;2024-03-02T06:33:22;6.20;99.90
36206;DHT22;22242;48.796;9.930;2024-03-02T06:35:49;6.20;99.90
36206;DHT22;22242;48.796;9.930;2024-03-02T06:38:16;6.20;99.90
36206;DHT22;22242;48.796;9.930;2024-03-02T06:40:44;6.10;99.90
36206;DHT22;22242;48.796;9.930;2024-03-02T06:43:11;6.20;99.90
36206;DHT22;22242;48.796;9.930;2024-03-02T06:45:38;6.10;99.90
36206;DHT22;22242;48.796;9.930;2024-03-02T06:48:05;6.20;99.90
36206;DHT22;22242;48.796;9.930;2024-03-02T06:50:32;6.10;99.90
36206;DHT22;22242;48.796;9.930;2024-03-02T06:52:59;6.10;99.90
36206;DHT22;22242;48.796;9.930;2024-03-02T06:55:26;6.20;99.90
36206;DHT22;22242;48.796;9.930;2024-03-02T06:57:54;6.20;99.90
36206;DHT22;22242;48.796;9.930;2024-03-02T07:00:21;6.30;99.90
36206;DHT22;22242;48.796;9.930;2024-03-02T07:02:47;6.40;99.90
36206;DHT22;22242;48.796;9.930;2024-03-02T07:05:15;6.50;99.90
36206;DHT22;22242;48.796;9.930;2024-03-02T07:07:42;6.50;99.90
36206;DHT22;22242;48.796;9.930;2024-03-02T07:10:09;6.50;99.90
36206;DHT22;22242;48.796;9.930;2024-03-02T07:12:36;6.60;99.90
36206;DHT22;22242;48.796;9.930;2024-03-02T07:15:05;6.80;99.90
36206;DHT22;22242;48.796;9.930;2024-03-02T07:17:47;7.10;99.90
36206;DHT22;22242;48.796;9.930;2024-03-02T07:20:14;7.00;99.90
36206;DHT22;22242;48.796;9.930;2024-03-02T07:22:40;7.30;99.90
36206;DHT22;22242;48.796;9.930;2024-03-02T07:25:07;7.50;99.90
36206;DHT22;22242;48.796;9.930;2024-03-02T07:27:34;7.40;99.90
36206;DHT22;22242;48.796;9.930;2024-03-02T07:30:02;7.40;99.90
36206;DHT22;22242;48.796;9.930;2024-03-02T07:32:30;7.40;99.90
36206;DHT22;22242;48.796;9.930;2024-03-02T07:34:57;7.40;99.90
36206;DHT22;22242;48.796;9.930;2024-03-02T07:37:24;7.30;99.90
36206;DHT22;22242;48.796;9.930;2024-03-02T07:39:51;7.30;99.90
36206;DHT22;22242;48.796;9.930;2024-03-02T07:42:19;7.30;99.90
36206;DHT22;22242;48.796;9.930;2024-03-02T07:44:45;7.40;99.90
36206;DHT22;22242;48.796;9.930;2024-03-02T07:47:12;7.40;99.90
36206;DHT22;22242;48.796;9.930;2024-03-02T07:49:41;7.50;99.90
36206;DHT22;22242;48.796;9.930;2024-03-02T07:52:08;7.90;99.90
36206;DHT22;22242;48.796;9.930;2024-03-02T07:54:34;8.00;99.90
36206;DHT22;22242;48.796;9.930;2024-03-02T07:57:02;8.00;99.90
36206;DHT22;22242;48.796;9.930;2024-03-02T07:59:28;8.00;99.90
36206;DHT22;22242;48.796;9.930;2024-03-02T08:01:55;8.00;99.90
36206;DHT22;22242;48.796;9.930;2024-03-02T08:04:22;8.00;99.90
36206;DHT22;22242;48.796;9.930;2024-03-02T08:06:50;7.90;99.90
36206;DHT22;22242;48.796;9.930;2024-03-02T08:09:17;7.90;99.90
36206;DHT22;22242;48.796;9.930;2024-03-02T08:11:44;8.00;99.90
36206;DHT22;22242;48.796;9.930;2024-03-02T08:14:11;8.10;99.90
36206;DHT22;22242;48.796;9.930;2024-03-02T08:16:37;8.00;99.90
36206;DHT22;22242;48.796;9.930;2024-03-02T08:19:04;8.10;99.90
36206;DHT22;22242;48.796;9.930;2024-03-02T08:21:31;8.20;99.90
36206;DHT22;22242;48.796;9.930;2024-03-02T08:24:02;8.30;99.90
36206;DHT22;22242;48.796;9.930;2024-03-02T08:26:29;8.20;99.90
36206;DHT22;22242;48.796;9.930;2024-03-02T08:28:57;8.30;99.90
36206;DHT22;22242;48.796;9.930;2024-03-02T08:31:24;8.40;99.90
36206;DHT22;22242;48.796;9.930;2024-03-02T08:33:51;8.70;99.90
36206;DHT22;22242;48.796;9.930;2024-03-02T08:36:18;8.70;99.90
36206;DHT22;22242;48.796;9.930;2024-03-02T08:38:45;9.20;99.90
36206;DHT22;22242;48.796;9.930;2024-03-02T08:41:13;9.50;99.90
36206;DHT22;22242;48.796;9.930;2024-03-02T08:43:42;9.80;99.90
36206;DHT22;22242;48.796;9.930;2024-03-02T08:46:09;10.20;99.90
36206;DHT22;22242;48.796;9.930;2024-03-02T08:48:35;10.80;99.90
36206;DHT22;22242;48.796;9.930;2024-03-02T08:51:03;11.20;99.90
36206;DHT22;22242;48.796;9.930;2024-03-02T08:53:33;11.20;99.90
36206;DHT22;22242;48.796;9.930;2024-03-02T08:56:00;11.20;99.90
36206;DHT22;22242;48.796;9.930;2024-03-02T08:58:28;10.80;99.90
36206;DHT22;22242;48.796;9.930;2024-03-02T09:00:55;11.00;99.90
36206;DHT22;22242;48.796;9.930;2024-03-02T09:03:21;11.90;99.90
36206;DHT22;22242;48.796;9.930;2024-03-02T09:05:48;12.50;99.90
36206;DHT22;22242;48.796;9.930;2024-03-02T09:08:15;13.10;99.90
36206;DHT22;22242;48.796;9.930;2024-03-02T09:10:42;13.90;99.90
36206;DHT22;22242;48.796;9.930;2024-03-02T09:13:09;14.00;99.90
36206;DHT22;22242;48.796;9.930;2024-03-02T09:15:37;14.70;99.90
36206;DHT22;22242;48.796;9.930;2024-03-02T09:18:05;15.40;99.90
36206;DHT22;22242;48.796;9.930;2024-03-02T09:20:32;16.20;99.90
36206;DHT22;22242;48.796;9.930;2024-03-02T09:22:59;16.20;99.90
36206;DHT22;22242;48.796;9.930;2024-03-02T09:25:26;16.50;99.90
36206;DHT22;22242;48.796;9.930;2024-03-02T09:27:53;17.10;99.90
36206;DHT22;22242;48.796;9.930;2024-03-02T09:30:19;17.80;96.10
36206;DHT22;22242;48.796;9.930;2024-03-02T09:32:48;18.40;95.50
36206;DHT22;22242;48.796;9.930;2024-03-02T09:35:14;18.40;95.80
36206;DHT22;22242;48.796;9.930;2024-03-02T09:37:41;18.50;95.10
36206;DHT22;22242;48.796;9.930;2024-03-02T09:40:09;19.90;93.40
36206;DHT22;22242;48.796;9.930;2024-03-02T09:42:37;19.40;92.10
36206;DHT22;22242;48.796;9.930;2024-03-02T09:45:05;18.10;93.00
36206;DHT22;22242;48.796;9.930;2024-03-02T09:47:32;15.80;95.50
36206;DHT22;22242;48.796;9.930;2024-03-02T09:50:00;15.60;97.50
36206;DHT22;22242;48.796;9.930;2024-03-02T09:52:27;15.00;97.90
36206;DHT22;22242;48.796;9.930;2024-03-02T09:54:54;14.50;99.20
36206;DHT22;22242;48.796;9.930;2024-03-02T09:57:21;14.90;99.30
36206;DHT22;22242;48.796;9.930;2024-03-02T09:59:47;15.10;98.20
36206;DHT22;22242;48.796;9.930;2024-03-02T10:02:14;14.70;99.10
36206;DHT22;22242;48.796;9.930;2024-03-02T10:04:41;14.30;98.50
36206;DHT22;22242;48.796;9.930;2024-03-02T10:07:13;13.70;99.90
36206;DHT22;22242;48.796;9.930;2024-03-02T10:09:40;13.60;99.90
36206;DHT22;22242;48.796;9.930;2024-03-02T10:12:09;12.90;99.90
36206;DHT22;22242;48.796;9.930;2024-03-02T10:14:37;12.50;99.90
36206;DHT22;22242;48.796;9.930;2024-03-02T10:17:04;12.70;99.90
36206;DHT22;22242;48.796;9.930;2024-03-02T10:19:32;12.60;99.90
36206;DHT22;22242;48.796;9.930;2024-03-02T10:22:01;13.10;99.90
36206;DHT22;22242;48.796;9.930;2024-03-02T10:24:36;12.50;99.90
36206;DHT22;22242;48.796;9.930;2024-03-02T10:27:07;12.90;99.90
36206;DHT22;22242;48.796;9.930;2024-03-02T10:29:37;13.00;99.90
36206;DHT22;22242;48.796;9.930;2024-03-02T10:32:05;12.60;99.90
36206;DHT22;22242;48.796;9.930;2024-03-02T10:34:32;13.00;99.90
36206;DHT22;22242;48.796;9.930;2024-03-02T10:36:59;12.90;99.90
36206;DHT22;22242;48.796;9.930;2024-03-02T10:39:27;13.00;99.90
36206;DHT22;22242;48.796;9.930;2024-03-02T10:41:56;12.50;99.90
36206;DHT22;22242;48.796;9.930;2024-03-02T10:44:23;12.30;99.90
36206;DHT22;22242;48.796;9.930;2024-03-02T10:46:50;11.90;99.90
36206;DHT22;22242;48.796;9.930;2024-03-02T10:49:19;11.70;99.90
36206;DHT22;22242;48.796;9.930;2024-03-02T10:51:47;11.80;99.90
36206;DHT22;22242;48.796;9.930;2024-03-02T10:54:14;11.90;99.90
36206;DHT22;22242;48.796;9.930;2024-03-02T10:56:43;12.20;99.90
36206;DHT22;22242;48.796;9.930;2024-03-02T10:59:17;12.00;99.90
36206;DHT22;22242;48.796;9.930;2024-03-02T11:01:45;12.50;99.90
36206;DHT22;22242;48.796;9.930;2024-03-02T11:04:16;12.80;99.90
36206;DHT22;22242;48.796;9.930;2024-03-02T11:06:48;13.40;99.90
36206;DHT22;22242;48.796;9.930;2024-03-02T11:09:17;13.90;99.90
36206;DHT22;22242;48.796;9.930;2024-03-02T11:11:48;13.20;99.90
36206;DHT22;22242;48.796;9.930;2024-03-02T11:14:24;14.10;99.90
36206;DHT22;22242;48.796;9.930;2024-03-02T11:16:51;14.50;99.30
36206;DHT22;22242;48.796;9.930;2024-03-02T11:19:19;15.10;98.30
36206;DHT22;22242;48.796;9.930;2024-03-02T11:21:47;16.20;96.60
36206;DHT22;22242;48.796;9.930;2024-03-02T11:24:35;15.60;97.60
36206;DHT22;22242;48.796;9.930;2024-03-02T11:27:03;15.70;96.60
36206;DHT22;22242;48.796;9.930;2024-03-02T11:29:44;16.70;95.60
36206;DHT22;22242;48.796;9.930;2024-03-02T11:32:16;16.40;95.00
36206;DHT22;22242;48.796;9.930;2024-03-02T11:34:45;16.40;95.30
36206;DHT22;22242;48.796;9.930;2024-03-02T11:37:13;15.90;94.10
36206;DHT22;22242;48.796;9.930;2024-03-02T11:39:41;15.50;96.00
36206;DHT22;22242;48.796;9.930;2024-03-02T11:42:08;15.20;97.20
36206;DHT22;22242;48.796;9.930;2024-03-02T11:44:36;15.90;97.20
36206;DHT22;22242;48.796;9.930;2024-03-02T11:47:05;15.60;96.70
36206;DHT22;22242;48.796;9.930;2024-03-02T11:49:40;15.30;96.60
36206;DHT22;22242;48.796;9.930;2024-03-02T11:52:08;15.50;95.80
36206;DHT22;22242;48.796;9.930;2024-03-02T11:54:37;16.10;95.60
36206;DHT22;22242;48.796;9.930;2024-03-02T11:57:05;15.50;95.90
36206;DHT22;22242;48.796;9.930;2024-03-02T11:59:33;15.30;95.90
36206;DHT22;22242;48.796;9.930;2024-03-02T12:02:00;14.10;96.40
36206;DHT22;22242;48.796;9.930;2024-03-02T12:04:30;14.40;97.00
36206;DHT22;22242;48.796;9.930;2024-03-02T12:06:59;14.70;97.30
36206;DHT22;22242;48.796;9.930;2024-03-02T12:09:26;14.90;96.70
36206;DHT22;22242;48.796;9.930;2024-03-02T12:12:04;14.90;97.00
36206;DHT22;22242;48.796;9.930;2024-03-02T12:14:31;14.80;97.60
36206;DHT22;22242;48.796;9.930;2024-03-02T12:16:58;13.90;98.30
36206;DHT22;22242;48.796;9.930;2024-03-02T12:19:26;13.70;98.50
36206;DHT22;22242;48.796;9.930;2024-03-02T12:21:57;13.80;98.10
36206;DHT22;22242;48.796;9.930;2024-03-02T12:24:24;13.70;98.60
36206;DHT22;22242;48.796;9.930;2024-03-02T12:26:53;14.10;97.70
36206;DHT22;22242;48.796;9.930;2024-03-02T12:29:20;14.30;97.60
36206;DHT22;22242;48.796;9.930;2024-03-02T12:31:48;14.60;97.90
36206;DHT22;22242;48.796;9.930;2024-03-02T12:34:16;14.90;97.90
36206;DHT22;22242;48.796;9.930;2024-03-02T12:36:43;15.10;97.50
36206;DHT22;22242;48.796;9.930;2024-03-02T12:39:14;15.00;95.70
36206;DHT22;22242;48.796;9.930;2024-03-02T12:41:41;15.10;95.90
36206;DHT22;22242;48.796;9.930;2024-03-02T12:44:08;14.70;96.50
36206;DHT22;22242;48.796;9.930;2024-03-02T12:46:35;14.80;95.50
36206;DHT22;22242;48.796;9.930;2024-03-02T12:49:08;14.00;95.60
36206;DHT22;22242;48.796;9.930;2024-03-02T12:51:36;14.00;97.00
36206;DHT22;22242;48.796;9.930;2024-03-02T12:54:03;13.90;96.70
36206;DHT22;22242;48.796;9.930;2024-03-02T12:56:32;14.20;97.20
36206;DHT22;22242;48.796;9.930;2024-03-02T12:58:59;13.90;95.80
36206;DHT22;22242;48.796;9.930;2024-03-02T13:01:26;13.90;96.60
36206;DHT22;22242;48.796;9.930;2024-03-02T13:03:53;13.70;96.20
36206;DHT22;22242;48.796;9.930;2024-03-02T13:06:21;14.00;97.30
36206;DHT22;22242;48.796;9.930;2024-03-02T13:08:48;14.00;97.00
36206;DHT22;22242;48.796;9.930;2024-03-02T13:11:16;14.10;97.20
36206;DHT22;22242;48.796;9.930;2024-03-02T13:13:44;14.10;97.70
36206;DHT22;22242;48.796;9.930;2024-03-02T13:16:12;14.70;97.60
36206;DHT22;22242;48.796;9.930;2024-03-02T13:18:39;14.60;97.50
36206;DHT22;22242;48.796;9.930;2024-03-02T13:21:07;14.20;94.90
36206;DHT22;22242;48.796;9.930;2024-03-02T13:23:33;13.50;95.90
36206;DHT22;22242;48.796;9.930;2024-03-02T13:26:01;13.80;97.10
36206;DHT22;22242;48.796;9.930;2024-03-02T13:28:28;13.90;96.60
36206;DHT22;22242;48.796;9.930;2024-03-02T13:30:56;13.50;97.40
36206;DHT22;22242;48.796;9.930;2024-03-02T13:33:23;13.60;97.50
36206;DHT22;22242;48.796;9.930;2024-03-02T13:35:50;13.90;97.70
36206;DHT22;22242;48.796;9.930;2024-03-02T13:38:18;13.60;98.40
36206;DHT22;22242;48.796;9.930;2024-03-02T13:40:45;13.50;99.50
36206;DHT22;22242;48.796;9.930;2024-03-02T13:43:12;13.50;97.70
36206;DHT22;22242;48.796;9.930;2024-03-02T13:45:39;13.10;96.50
36206;DHT22;22242;48.796;9.930;2024-03-02T13:48:07;13.20;97.70
36206;DHT22;22242;48.796;9.930;2024-03-02T13:50:34;13.30;97.90
36206;DHT22;22242;48.796;9.930;2024-03-02T13:53:01;13.10;98.20
36206;DHT22;22242;48.796;9.930;2024-03-02T13:55:28;13.10;99.40
36206;DHT22;22242;48.796;9.930;2024-03-02T13:57:55;13.20;99.80
36206;DHT22;22242;48.796;9.930;2024-03-02T14:00:22;12.80;99.90
36206;DHT22;22242;48.796;9.930;2024-03-02T14:02:49;13.00;99.90
36206;DHT22;22242;48.796;9.930;2024-03-02T14:05:17;13.10;99.90
36206;DHT22;22242;48.796;9.930;2024-03-02T14:07:45;13.40;99.90
36206;DHT22;22242;48.796;9.930;2024-03-02T14:10:12;13.20;99.90
36206;DHT22;22242;48.796;9.930;2024-03-02T14:12:40;13.20;99.90
36206;DHT22;22242;48.796;9.930;2024-03-02T14:15:07;12.80;99.90
36206;DHT22;22242;48.796;9.930;2024-03-02T14:17:34;12.60;99.90
36206;DHT22;22242;48.796;9.930;2024-03-02T14:20:01;12.50;99.90
36206;DHT22;22242;48.796;9.930;2024-03-02T14:22:31;12.50;99.90
36206;DHT22;22242;48.796;9.930;2024-03-02T14:24:59;12.60;99.90
36206;DHT22;22242;48.796;9.930;2024-03-02T14:27:26;12.60;99.90
36206;DHT22;22242;48.796;9.930;2024-03-02T14:29:53;12.60;99.90
36206;DHT22;22242;48.796;9.930;2024-03-02T14:32:19;12.50;99.90
36206;DHT22;22242;48.796;9.930;2024-03-02T14:34:46;12.60;99.90
36206;DHT22;22242;48.796;9.930;2024-03-02T14:37:14;12.80;99.90
36206;DHT22;22242;48.796;9.930;2024-03-02T14:39:42;12.80;99.90
36206;DHT22;22242;48.796;9.930;2024-03-02T14:42:09;12.80;99.90
36206;DHT22;22242;48.796;9.930;2024-03-02T14:44:36;12.80;99.90
36206;DHT22;22242;48.796;9.930;2024-03-02T14:47:03;12.70;99.90
36206;DHT22;22242;48.796;9.930;2024-03-02T14:49:30;12.80;99.90
36206;DHT22;22242;48.796;9.930;2024-03-02T14:51:59;12.80;99.90
36206;DHT22;22242;48.796;9.930;2024-03-02T14:54:26;12.80;99.90
36206;DHT22;22242;48.796;9.930;2024-03-02T14:56:54;12.80;99.90
36206;DHT22;22242;48.796;9.930;2024-03-02T14:59:22;12.80;99.90
36206;DHT22;22242;48.796;9.930;2024-03-02T15:01:49;13.00;99.90
36206;DHT22;22242;48.796;9.930;2024-03-02T15:04:16;12.90;99.90
36206;DHT22;22242;48.796;9.930;2024-03-02T15:06:44;12.90;99.90
36206;DHT22;22242;48.796;9.930;2024-03-02T15:09:11;12.90;99.90
36206;DHT22;22242;48.796;9.930;2024-03-02T15:11:38;12.90;99.90
36206;DHT22;22242;48.796;9.930;2024-03-02T15:14:06;13.00;99.90
36206;DHT22;22242;48.796;9.930;2024-03-02T15:16:33;12.90;99.90
36206;DHT22;22242;48.796;9.930;2024-03-02T15:19:00;12.80;99.90
36206;DHT22;22242;48.796;9.930;2024-03-02T15:21:28;12.80;99.90
36206;DHT22;22242;48.796;9.930;2024-03-02T15:23:55;12.70;99.90
36206;DHT22;22242;48.796;9.930;2024-03-02T15:26:21;12.80;99.90
36206;DHT22;22242;48.796;9.930;2024-03-02T15:28:48;12.70;99.90
36206;DHT22;22242;48.796;9.930;2024-03-02T15:31:16;12.60;99.90
36206;DHT22;22242;48.796;9.930;2024-03-02T15:33:43;12.70;99.90
36206;DHT22;22242;48.796;9.930;2024-03-02T15:36:10;12.60;99.90
36206;DHT22;22242;48.796;9.930;2024-03-02T15:38:37;12.70;99.90
36206;DHT22;22242;48.796;9.930;2024-03-02T15:41:04;12.60;99.90
36206;DHT22;22242;48.796;9.930;2024-03-02T15:43:31;12.60;99.90